Bath, Illinois
Current Conditions -  °F | °C
As of 8:15 AM on Wednesday 28 Jan 2015 (Local Time) from KIJX Reporting Station
Clear Clear  
Wind Chill: -6°   Ceiling: Unl
Heat Index: -1°   Visibility: 7mi
Dew Point: -3°   Wind: 13mph
Humidity: 84%   Direction: 140°SE
Pressure: 30.21"   Gusts: 18mph
Location:  40.19°N, 90.14°W
Report Text: KIJX 281415Z AUTO 14011G16KT 7SM CLR M01/M03 A3021 RMK AO2 T10061030
Loading
Personal Weather Stations






























Interactive Weather Map New forecast layout! Learn more

10-Day Weather Forecast

Advertisements
Track Severe Weather on mobile